sensor_id;sensor_type;location;lat;lon;timestamp;P1;durP1;ratioP1;P2;durP2;ratioP2
14613;SDS011;7393;51.446;6.800;2023-04-29T00:00:03;34.43;;;23.57;;
14613;SDS011;7393;51.446;6.800;2023-04-29T00:02:31;34.67;;;24.03;;
14613;SDS011;7393;51.446;6.800;2023-04-29T00:04:58;35.60;;;23.90;;
14613;SDS011;7393;51.446;6.800;2023-04-29T00:07:25;34.27;;;24.60;;
14613;SDS011;7393;51.446;6.800;2023-04-29T00:09:52;39.97;;;25.17;;
14613;SDS011;7393;51.446;6.800;2023-04-29T00:12:18;37.40;;;24.83;;
14613;SDS011;7393;51.446;6.800;2023-04-29T00:14:45;40.27;;;24.77;;
14613;SDS011;7393;51.446;6.800;2023-04-29T00:17:13;37.87;;;25.63;;
14613;SDS011;7393;51.446;6.800;2023-04-29T00:19:40;44.37;;;27.07;;
14613;SDS011;7393;51.446;6.800;2023-04-29T00:22:07;45.77;;;28.87;;
14613;SDS011;7393;51.446;6.800;2023-04-29T00:24:34;47.37;;;30.03;;
14613;SDS011;7393;51.446;6.800;2023-04-29T00:27:01;41.87;;;28.10;;
14613;SDS011;7393;51.446;6.800;2023-04-29T00:29:27;49.40;;;29.50;;
14613;SDS011;7393;51.446;6.800;2023-04-29T00:31:54;49.60;;;29.30;;
14613;SDS011;7393;51.446;6.800;2023-04-29T00:34:23;45.80;;;29.03;;
14613;SDS011;7393;51.446;6.800;2023-04-29T00:36:50;45.20;;;29.10;;
14613;SDS011;7393;51.446;6.800;2023-04-29T00:39:16;46.23;;;29.83;;
14613;SDS011;7393;51.446;6.800;2023-04-29T00:41:43;47.30;;;28.80;;
14613;SDS011;7393;51.446;6.800;2023-04-29T00:44:10;45.33;;;28.43;;
14613;SDS011;7393;51.446;6.800;2023-04-29T00:46:37;47.20;;;28.77;;
14613;SDS011;7393;51.446;6.800;2023-04-29T00:49:04;47.73;;;29.97;;
14613;SDS011;7393;51.446;6.800;2023-04-29T00:51:32;47.70;;;29.60;;
14613;SDS011;7393;51.446;6.800;2023-04-29T00:54:00;47.33;;;29.80;;
14613;SDS011;7393;51.446;6.800;2023-04-29T00:56:27;52.10;;;31.53;;
14613;SDS011;7393;51.446;6.800;2023-04-29T00:58:57;51.53;;;31.13;;
14613;SDS011;7393;51.446;6.800;2023-04-29T01:01:24;51.63;;;31.07;;
14613;SDS011;7393;51.446;6.800;2023-04-29T01:03:51;53.20;;;31.50;;
14613;SDS011;7393;51.446;6.800;2023-04-29T01:06:22;53.30;;;30.67;;
14613;SDS011;7393;51.446;6.800;2023-04-29T01:08:59;54.80;;;31.47;;
14613;SDS011;7393;51.446;6.800;2023-04-29T01:14:20;53.77;;;30.37;;
14613;SDS011;7393;51.446;6.800;2023-04-29T01:16:50;53.10;;;30.30;;
14613;SDS011;7393;51.446;6.800;2023-04-29T01:19:20;46.47;;;28.77;;
14613;SDS011;7393;51.446;6.800;2023-04-29T01:21:58;55.63;;;30.57;;
14613;SDS011;7393;51.446;6.800;2023-04-29T01:24:26;50.83;;;29.27;;
14613;SDS011;7393;51.446;6.800;2023-04-29T01:26:55;54.10;;;30.93;;
14613;SDS011;7393;51.446;6.800;2023-04-29T01:29:31;52.83;;;30.53;;
14613;SDS011;7393;51.446;6.800;2023-04-29T01:32:05;55.17;;;31.50;;
14613;SDS011;7393;51.446;6.800;2023-04-29T01:34:41;62.47;;;33.60;;
14613;SDS011;7393;51.446;6.800;2023-04-29T01:37:13;61.63;;;34.67;;
14613;SDS011;7393;51.446;6.800;2023-04-29T01:39:49;64.77;;;34.47;;
14613;SDS011;7393;51.446;6.800;2023-04-29T01:42:23;62.73;;;34.57;;
14613;SDS011;7393;51.446;6.800;2023-04-29T01:44:55;61.67;;;34.10;;
14613;SDS011;7393;51.446;6.800;2023-04-29T01:47:25;67.37;;;36.07;;
14613;SDS011;7393;51.446;6.800;2023-04-29T01:49:53;68.77;;;36.23;;
14613;SDS011;7393;51.446;6.800;2023-04-29T01:52:20;68.07;;;36.37;;
14613;SDS011;7393;51.446;6.800;2023-04-29T01:54:49;75.47;;;39.27;;
14613;SDS011;7393;51.446;6.800;2023-04-29T01:57:15;68.63;;;36.40;;
14613;SDS011;7393;51.446;6.800;2023-04-29T01:59:43;70.03;;;36.60;;
14613;SDS011;7393;51.446;6.800;2023-04-29T02:02:10;76.23;;;38.27;;
14613;SDS011;7393;51.446;6.800;2023-04-29T02:04:40;69.00;;;36.47;;
14613;SDS011;7393;51.446;6.800;2023-04-29T02:07:07;72.80;;;37.60;;
14613;SDS011;7393;51.446;6.800;2023-04-29T02:09:34;68.63;;;36.97;;
14613;SDS011;7393;51.446;6.800;2023-04-29T02:12:02;66.27;;;36.23;;
14613;SDS011;7393;51.446;6.800;2023-04-29T02:14:29;69.13;;;37.60;;
14613;SDS011;7393;51.446;6.800;2023-04-29T02:16:58;59.83;;;32.73;;
14613;SDS011;7393;51.446;6.800;2023-04-29T02:19:24;56.93;;;32.23;;
14613;SDS011;7393;51.446;6.800;2023-04-29T02:21:51;56.20;;;30.17;;
14613;SDS011;7393;51.446;6.800;2023-04-29T02:24:18;58.17;;;31.37;;
14613;SDS011;7393;51.446;6.800;2023-04-29T02:26:45;51.90;;;30.13;;
14613;SDS011;7393;51.446;6.800;2023-04-29T02:29:13;48.40;;;27.67;;
14613;SDS011;7393;51.446;6.800;2023-04-29T02:31:40;46.67;;;27.27;;
14613;SDS011;7393;51.446;6.800;2023-04-29T02:34:06;46.70;;;27.97;;
14613;SDS011;7393;51.446;6.800;2023-04-29T02:36:33;44.40;;;25.83;;
14613;SDS011;7393;51.446;6.800;2023-04-29T02:39:00;44.97;;;25.23;;
14613;SDS011;7393;51.446;6.800;2023-04-29T02:41:27;48.03;;;25.07;;
14613;SDS011;7393;51.446;6.800;2023-04-29T02:43:53;46.10;;;26.03;;
14613;SDS011;7393;51.446;6.800;2023-04-29T02:46:22;45.10;;;26.17;;
14613;SDS011;7393;51.446;6.800;2023-04-29T02:48:48;49.90;;;26.97;;
14613;SDS011;7393;51.446;6.800;2023-04-29T02:51:15;47.33;;;26.87;;
14613;SDS011;7393;51.446;6.800;2023-04-29T02:53:42;43.10;;;25.50;;
14613;SDS011;7393;51.446;6.800;2023-04-29T02:56:08;40.93;;;25.87;;
14613;SDS011;7393;51.446;6.800;2023-04-29T02:58:35;41.00;;;25.83;;
14613;SDS011;7393;51.446;6.800;2023-04-29T03:01:02;41.17;;;25.87;;
14613;SDS011;7393;51.446;6.800;2023-04-29T03:03:30;39.70;;;24.03;;
14613;SDS011;7393;51.446;6.800;2023-04-29T03:05:57;35.10;;;23.37;;
14613;SDS011;7393;51.446;6.800;2023-04-29T03:08:23;38.07;;;23.87;;
14613;SDS011;7393;51.446;6.800;2023-04-29T03:10:51;34.80;;;22.23;;
14613;SDS011;7393;51.446;6.800;2023-04-29T03:13:17;39.33;;;23.73;;
14613;SDS011;7393;51.446;6.800;2023-04-29T03:15:44;36.87;;;22.57;;
14613;SDS011;7393;51.446;6.800;2023-04-29T03:18:11;37.27;;;23.73;;
14613;SDS011;7393;51.446;6.800;2023-04-29T03:20:39;35.73;;;22.60;;
14613;SDS011;7393;51.446;6.800;2023-04-29T03:23:06;37.57;;;23.23;;
14613;SDS011;7393;51.446;6.800;2023-04-29T03:25:33;35.80;;;23.00;;
14613;SDS011;7393;51.446;6.800;2023-04-29T03:28:00;34.10;;;22.30;;
14613;SDS011;7393;51.446;6.800;2023-04-29T03:30:28;36.93;;;22.87;;
14613;SDS011;7393;51.446;6.800;2023-04-29T03:32:55;39.50;;;23.33;;
14613;SDS011;7393;51.446;6.800;2023-04-29T03:35:21;33.40;;;21.57;;
14613;SDS011;7393;51.446;6.800;2023-04-29T03:37:50;33.90;;;21.63;;
14613;SDS011;7393;51.446;6.800;2023-04-29T03:40:17;31.60;;;19.97;;
14613;SDS011;7393;51.446;6.800;2023-04-29T03:42:44;33.43;;;21.83;;
14613;SDS011;7393;51.446;6.800;2023-04-29T03:45:11;31.07;;;20.47;;
14613;SDS011;7393;51.446;6.800;2023-04-29T03:47:38;32.10;;;21.37;;
14613;SDS011;7393;51.446;6.800;2023-04-29T03:50:05;33.17;;;20.83;;
14613;SDS011;7393;51.446;6.800;2023-04-29T03:52:33;30.10;;;20.30;;
14613;SDS011;7393;51.446;6.800;2023-04-29T03:55:03;29.00;;;20.13;;
14613;SDS011;7393;51.446;6.800;2023-04-29T03:57:30;29.73;;;19.77;;
14613;SDS011;7393;51.446;6.800;2023-04-29T03:59:57;29.20;;;18.90;;
14613;SDS011;7393;51.446;6.800;2023-04-29T04:02:23;28.00;;;18.90;;
14613;SDS011;7393;51.446;6.800;2023-04-29T04:04:50;29.33;;;19.50;;
14613;SDS011;7393;51.446;6.800;2023-04-29T04:07:19;27.53;;;19.73;;
14613;SDS011;7393;51.446;6.800;2023-04-29T04:09:45;32.60;;;19.93;;
14613;SDS011;7393;51.446;6.800;2023-04-29T04:12:14;28.93;;;19.57;;
14613;SDS011;7393;51.446;6.800;2023-04-29T04:14:40;29.13;;;19.60;;
14613;SDS011;7393;51.446;6.800;2023-04-29T04:17:07;27.83;;;18.60;;
14613;SDS011;7393;51.446;6.800;2023-04-29T04:19:34;27.43;;;18.77;;
14613;SDS011;7393;51.446;6.800;2023-04-29T04:22:01;33.23;;;20.40;;
14613;SDS011;7393;51.446;6.800;2023-04-29T04:24:28;28.83;;;18.63;;
14613;SDS011;7393;51.446;6.800;2023-04-29T04:26:55;33.10;;;19.73;;
14613;SDS011;7393;51.446;6.800;2023-04-29T04:29:23;29.97;;;19.77;;
14613;SDS011;7393;51.446;6.800;2023-04-29T04:31:50;31.47;;;19.87;;
14613;SDS011;7393;51.446;6.800;2023-04-29T04:34:17;33.70;;;20.77;;
14613;SDS011;7393;51.446;6.800;2023-04-29T04:36:44;30.07;;;18.27;;
14613;SDS011;7393;51.446;6.800;2023-04-29T04:39:10;26.83;;;18.80;;
14613;SDS011;7393;51.446;6.800;2023-04-29T04:41:37;29.73;;;18.90;;
14613;SDS011;7393;51.446;6.800;2023-04-29T04:44:04;26.80;;;18.80;;
14613;SDS011;7393;51.446;6.800;2023-04-29T04:46:32;31.83;;;20.50;;
14613;SDS011;7393;51.446;6.800;2023-04-29T04:48:59;30.33;;;19.83;;
14613;SDS011;7393;51.446;6.800;2023-04-29T04:51:26;27.23;;;18.87;;
14613;SDS011;7393;51.446;6.800;2023-04-29T04:53:53;36.80;;;19.50;;
14613;SDS011;7393;51.446;6.800;2023-04-29T04:56:20;31.67;;;19.53;;
14613;SDS011;7393;51.446;6.800;2023-04-29T04:58:47;27.27;;;19.33;;
14613;SDS011;7393;51.446;6.800;2023-04-29T05:01:14;31.70;;;18.93;;
14613;SDS011;7393;51.446;6.800;2023-04-29T05:03:42;26.73;;;18.70;;
14613;SDS011;7393;51.446;6.800;2023-04-29T05:06:09;26.70;;;18.93;;
14613;SDS011;7393;51.446;6.800;2023-04-29T05:08:35;30.17;;;19.17;;
14613;SDS011;7393;51.446;6.800;2023-04-29T05:11:02;26.20;;;18.87;;
14613;SDS011;7393;51.446;6.800;2023-04-29T05:13:29;27.70;;;18.40;;
14613;SDS011;7393;51.446;6.800;2023-04-29T05:15:59;28.97;;;18.50;;
14613;SDS011;7393;51.446;6.800;2023-04-29T05:18:27;27.90;;;18.23;;
14613;SDS011;7393;51.446;6.800;2023-04-29T05:20:55;26.50;;;18.07;;
14613;SDS011;7393;51.446;6.800;2023-04-29T05:23:24;27.00;;;19.37;;
14613;SDS011;7393;51.446;6.800;2023-04-29T05:25:50;29.03;;;19.67;;
14613;SDS011;7393;51.446;6.800;2023-04-29T05:28:17;28.03;;;19.20;;
14613;SDS011;7393;51.446;6.800;2023-04-29T05:30:44;30.13;;;20.10;;
14613;SDS011;7393;51.446;6.800;2023-04-29T05:33:11;26.67;;;19.67;;
14613;SDS011;7393;51.446;6.800;2023-04-29T05:35:38;29.83;;;20.13;;
14613;SDS011;7393;51.446;6.800;2023-04-29T05:38:06;31.23;;;20.30;;
14613;SDS011;7393;51.446;6.800;2023-04-29T05:40:33;28.23;;;21.00;;
14613;SDS011;7393;51.446;6.800;2023-04-29T05:43:00;26.30;;;19.27;;
14613;SDS011;7393;51.446;6.800;2023-04-29T05:45:26;26.77;;;19.70;;
14613;SDS011;7393;51.446;6.800;2023-04-29T05:47:53;26.10;;;19.17;;
14613;SDS011;7393;51.446;6.800;2023-04-29T05:50:20;25.97;;;19.20;;
14613;SDS011;7393;51.446;6.800;2023-04-29T05:52:47;28.33;;;20.33;;
14613;SDS011;7393;51.446;6.800;2023-04-29T05:55:15;27.63;;;18.63;;
14613;SDS011;7393;51.446;6.800;2023-04-29T05:57:42;25.67;;;18.50;;
14613;SDS011;7393;51.446;6.800;2023-04-29T06:00:09;27.13;;;19.80;;
14613;SDS011;7393;51.446;6.800;2023-04-29T06:02:37;29.27;;;20.00;;
14613;SDS011;7393;51.446;6.800;2023-04-29T06:05:07;25.13;;;19.13;;
14613;SDS011;7393;51.446;6.800;2023-04-29T06:07:34;27.03;;;19.03;;
14613;SDS011;7393;51.446;6.800;2023-04-29T06:10:01;23.37;;;17.00;;
14613;SDS011;7393;51.446;6.800;2023-04-29T06:12:29;25.00;;;17.87;;
14613;SDS011;7393;51.446;6.800;2023-04-29T06:14:56;27.97;;;19.50;;
14613;SDS011;7393;51.446;6.800;2023-04-29T06:17:23;28.53;;;18.60;;
14613;SDS011;7393;51.446;6.800;2023-04-29T06:19:50;25.70;;;17.67;;
14613;SDS011;7393;51.446;6.800;2023-04-29T06:22:16;27.23;;;18.77;;
14613;SDS011;7393;51.446;6.800;2023-04-29T06:24:43;26.23;;;18.40;;
14613;SDS011;7393;51.446;6.800;2023-04-29T06:27:11;27.03;;;18.13;;
14613;SDS011;7393;51.446;6.800;2023-04-29T06:29:39;24.50;;;17.57;;
14613;SDS011;7393;51.446;6.800;2023-04-29T06:32:06;27.57;;;18.80;;
14613;SDS011;7393;51.446;6.800;2023-04-29T06:34:33;28.90;;;18.63;;
14613;SDS011;7393;51.446;6.800;2023-04-29T06:37:00;26.17;;;17.73;;
14613;SDS011;7393;51.446;6.800;2023-04-29T06:39:26;23.50;;;17.17;;
14613;SDS011;7393;51.446;6.800;2023-04-29T06:41:53;28.50;;;19.00;;
14613;SDS011;7393;51.446;6.800;2023-04-29T06:44:22;27.90;;;19.23;;
14613;SDS011;7393;51.446;6.800;2023-04-29T06:46:51;28.00;;;19.37;;
14613;SDS011;7393;51.446;6.800;2023-04-29T06:49:18;25.53;;;18.30;;
14613;SDS011;7393;51.446;6.800;2023-04-29T06:51:46;24.97;;;17.80;;
14613;SDS011;7393;51.446;6.800;2023-04-29T06:54:13;31.00;;;19.37;;
14613;SDS011;7393;51.446;6.800;2023-04-29T06:56:39;25.30;;;18.37;;
14613;SDS011;7393;51.446;6.800;2023-04-29T06:59:06;29.57;;;19.63;;
14613;SDS011;7393;51.446;6.800;2023-04-29T07:01:34;24.83;;;18.70;;
14613;SDS011;7393;51.446;6.800;2023-04-29T07:04:03;25.17;;;19.10;;
14613;SDS011;7393;51.446;6.800;2023-04-29T07:06:30;26.63;;;19.30;;
14613;SDS011;7393;51.446;6.800;2023-04-29T07:08:56;28.57;;;19.93;;
14613;SDS011;7393;51.446;6.800;2023-04-29T07:11:23;27.53;;;19.43;;
14613;SDS011;7393;51.446;6.800;2023-04-29T07:13:52;28.50;;;19.43;;
14613;SDS011;7393;51.446;6.800;2023-04-29T07:16:18;25.37;;;18.33;;
14613;SDS011;7393;51.446;6.800;2023-04-29T07:18:45;29.30;;;19.33;;
14613;SDS011;7393;51.446;6.800;2023-04-29T07:21:13;25.47;;;18.50;;
14613;SDS011;7393;51.446;6.800;2023-04-29T07:23:40;27.70;;;19.50;;
14613;SDS011;7393;51.446;6.800;2023-04-29T07:26:08;26.10;;;18.33;;
14613;SDS011;7393;51.446;6.800;2023-04-29T07:28:35;25.27;;;18.83;;
14613;SDS011;7393;51.446;6.800;2023-04-29T07:31:02;25.03;;;18.47;;
14613;SDS011;7393;51.446;6.800;2023-04-29T07:33:29;30.53;;;21.23;;
14613;SDS011;7393;51.446;6.800;2023-04-29T07:35:56;32.40;;;22.07;;
14613;SDS011;7393;51.446;6.800;2023-04-29T07:38:24;28.80;;;20.97;;
14613;SDS011;7393;51.446;6.800;2023-04-29T07:40:50;27.07;;;19.63;;
14613;SDS011;7393;51.446;6.800;2023-04-29T07:43:17;23.80;;;18.73;;
14613;SDS011;7393;51.446;6.800;2023-04-29T07:45:44;27.03;;;19.50;;
14613;SDS011;7393;51.446;6.800;2023-04-29T07:48:11;27.60;;;18.80;;
14613;SDS011;7393;51.446;6.800;2023-04-29T07:50:38;28.03;;;18.40;;
14613;SDS011;7393;51.446;6.800;2023-04-29T07:53:05;28.43;;;19.63;;
14613;SDS011;7393;51.446;6.800;2023-04-29T07:55:34;31.10;;;19.00;;
14613;SDS011;7393;51.446;6.800;2023-04-29T07:58:02;27.63;;;19.17;;
14613;SDS011;7393;51.446;6.800;2023-04-29T08:00:29;27.03;;;19.30;;
14613;SDS011;7393;51.446;6.800;2023-04-29T08:02:56;28.07;;;18.67;;
14613;SDS011;7393;51.446;6.800;2023-04-29T08:05:22;33.97;;;19.97;;
14613;SDS011;7393;51.446;6.800;2023-04-29T08:07:49;26.70;;;18.87;;
14613;SDS011;7393;51.446;6.800;2023-04-29T08:10:17;25.90;;;19.20;;
14613;SDS011;7393;51.446;6.800;2023-04-29T08:12:47;29.83;;;20.13;;
14613;SDS011;7393;51.446;6.800;2023-04-29T08:15:15;31.03;;;20.00;;
14613;SDS011;7393;51.446;6.800;2023-04-29T08:17:42;28.20;;;18.50;;
14613;SDS011;7393;51.446;6.800;2023-04-29T08:20:10;29.63;;;19.47;;
14613;SDS011;7393;51.446;6.800;2023-04-29T08:22:37;25.53;;;18.13;;
14613;SDS011;7393;51.446;6.800;2023-04-29T08:25:04;27.33;;;18.50;;
14613;SDS011;7393;51.446;6.800;2023-04-29T08:27:31;28.70;;;19.73;;
14613;SDS011;7393;51.446;6.800;2023-04-29T08:29:59;30.40;;;19.70;;
14613;SDS011;7393;51.446;6.800;2023-04-29T08:32:26;30.17;;;19.93;;
14613;SDS011;7393;51.446;6.800;2023-04-29T08:34:53;32.23;;;19.67;;
14613;SDS011;7393;51.446;6.800;2023-04-29T08:37:20;34.23;;;20.83;;
14613;SDS011;7393;51.446;6.800;2023-04-29T08:39:46;29.97;;;20.03;;
14613;SDS011;7393;51.446;6.800;2023-04-29T08:42:13;28.03;;;19.67;;
14613;SDS011;7393;51.446;6.800;2023-04-29T08:44:40;30.97;;;20.40;;
14613;SDS011;7393;51.446;6.800;2023-04-29T08:47:09;35.83;;;21.47;;
14613;SDS011;7393;51.446;6.800;2023-04-29T08:49:38;31.60;;;22.03;;
14613;SDS011;7393;51.446;6.800;2023-04-29T08:52:06;33.57;;;20.67;;
14613;SDS011;7393;51.446;6.800;2023-04-29T08:54:33;33.77;;;21.37;;
14613;SDS011;7393;51.446;6.800;2023-04-29T08:57:00;30.63;;;21.13;;
14613;SDS011;7393;51.446;6.800;2023-04-29T08:59:27;34.70;;;21.67;;
14613;SDS011;7393;51.446;6.800;2023-04-29T09:01:55;35.20;;;21.70;;
14613;SDS011;7393;51.446;6.800;2023-04-29T09:04:29;30.87;;;20.23;;
14613;SDS011;7393;51.446;6.800;2023-04-29T09:07:02;30.97;;;20.43;;
14613;SDS011;7393;51.446;6.800;2023-04-29T09:09:30;33.20;;;22.13;;
14613;SDS011;7393;51.446;6.800;2023-04-29T09:11:58;35.67;;;20.40;;
14613;SDS011;7393;51.446;6.800;2023-04-29T09:14:25;32.90;;;22.27;;
14613;SDS011;7393;51.446;6.800;2023-04-29T09:16:52;32.50;;;21.13;;
14613;SDS011;7393;51.446;6.800;2023-04-29T09:19:29;33.53;;;20.73;;
14613;SDS011;7393;51.446;6.800;2023-04-29T09:21:57;33.33;;;21.00;;
14613;SDS011;7393;51.446;6.800;2023-04-29T09:24:25;29.97;;;21.50;;
14613;SDS011;7393;51.446;6.800;2023-04-29T09:26:53;31.57;;;19.67;;
14613;SDS011;7393;51.446;6.800;2023-04-29T09:29:20;32.57;;;21.47;;
14613;SDS011;7393;51.446;6.800;2023-04-29T09:31:48;31.97;;;20.93;;
14613;SDS011;7393;51.446;6.800;2023-04-29T09:34:15;30.73;;;20.80;;
14613;SDS011;7393;51.446;6.800;2023-04-29T09:36:44;31.23;;;20.43;;
14613;SDS011;7393;51.446;6.800;2023-04-29T09:39:12;30.63;;;19.67;;
14613;SDS011;7393;51.446;6.800;2023-04-29T09:41:41;28.93;;;19.97;;
14613;SDS011;7393;51.446;6.800;2023-04-29T09:44:24;30.40;;;19.97;;
14613;SDS011;7393;51.446;6.800;2023-04-29T09:46:55;29.50;;;20.60;;
14613;SDS011;7393;51.446;6.800;2023-04-29T09:49:24;30.23;;;20.70;;
14613;SDS011;7393;51.446;6.800;2023-04-29T09:51:53;28.43;;;19.43;;
14613;SDS011;7393;51.446;6.800;2023-04-29T09:54:21;31.93;;;20.03;;
14613;SDS011;7393;51.446;6.800;2023-04-29T09:56:49;27.97;;;19.73;;
14613;SDS011;7393;51.446;6.800;2023-04-29T09:59:17;27.47;;;19.60;;
14613;SDS011;7393;51.446;6.800;2023-04-29T10:01:44;31.77;;;19.87;;
14613;SDS011;7393;51.446;6.800;2023-04-29T10:04:14;29.87;;;19.90;;
14613;SDS011;7393;51.446;6.800;2023-04-29T10:06:43;32.60;;;19.40;;
14613;SDS011;7393;51.446;6.800;2023-04-29T10:09:13;29.53;;;19.63;;
14613;SDS011;7393;51.446;6.800;2023-04-29T10:11:42;30.23;;;19.97;;
14613;SDS011;7393;51.446;6.800;2023-04-29T10:14:11;29.67;;;20.33;;
14613;SDS011;7393;51.446;6.800;2023-04-29T10:16:40;28.73;;;18.47;;
14613;SDS011;7393;51.446;6.800;2023-04-29T10:19:14;27.87;;;18.33;;
14613;SDS011;7393;51.446;6.800;2023-04-29T10:21:51;25.93;;;18.77;;
14613;SDS011;7393;51.446;6.800;2023-04-29T10:24:21;24.97;;;18.90;;
14613;SDS011;7393;51.446;6.800;2023-04-29T10:26:50;25.97;;;19.03;;
14613;SDS011;7393;51.446;6.800;2023-04-29T10:29:18;24.13;;;18.73;;
14613;SDS011;7393;51.446;6.800;2023-04-29T10:31:47;29.03;;;18.17;;
14613;SDS011;7393;51.446;6.800;2023-04-29T10:34:16;27.80;;;19.53;;
14613;SDS011;7393;51.446;6.800;2023-04-29T10:36:43;25.70;;;19.03;;
14613;SDS011;7393;51.446;6.800;2023-04-29T10:39:12;25.20;;;18.63;;
14613;SDS011;7393;51.446;6.800;2023-04-29T10:41:47;25.27;;;19.67;;
14613;SDS011;7393;51.446;6.800;2023-04-29T10:44:16;26.90;;;18.70;;
14613;SDS011;7393;51.446;6.800;2023-04-29T10:46:43;25.83;;;18.20;;
14613;SDS011;7393;51.446;6.800;2023-04-29T10:49:10;23.57;;;18.17;;
14613;SDS011;7393;51.446;6.800;2023-04-29T10:51:38;23.73;;;18.53;;
14613;SDS011;7393;51.446;6.800;2023-04-29T10:54:07;29.27;;;18.27;;
14613;SDS011;7393;51.446;6.800;2023-04-29T10:56:42;23.80;;;17.87;;
14613;SDS011;7393;51.446;6.800;2023-04-29T10:59:14;26.70;;;19.53;;
14613;SDS011;7393;51.446;6.800;2023-04-29T11:01:46;26.53;;;18.50;;
14613;SDS011;7393;51.446;6.800;2023-04-29T11:04:14;22.67;;;17.47;;
14613;SDS011;7393;51.446;6.800;2023-04-29T11:06:43;22.23;;;17.50;;
14613;SDS011;7393;51.446;6.800;2023-04-29T11:09:12;20.17;;;16.27;;
14613;SDS011;7393;51.446;6.800;2023-04-29T11:11:44;20.43;;;16.20;;
14613;SDS011;7393;51.446;6.800;2023-04-29T11:14:24;19.93;;;16.27;;
14613;SDS011;7393;51.446;6.800;2023-04-29T11:16:52;22.13;;;16.43;;
14613;SDS011;7393;51.446;6.800;2023-04-29T11:19:22;21.70;;;16.53;;
14613;SDS011;7393;51.446;6.800;2023-04-29T11:22:02;21.27;;;15.63;;
14613;SDS011;7393;51.446;6.800;2023-04-29T11:24:33;22.27;;;16.20;;
14613;SDS011;7393;51.446;6.800;2023-04-29T11:27:00;20.20;;;15.80;;
14613;SDS011;7393;51.446;6.800;2023-04-29T11:29:30;22.33;;;15.53;;
14613;SDS011;7393;51.446;6.800;2023-04-29T11:31:58;22.27;;;16.07;;
14613;SDS011;7393;51.446;6.800;2023-04-29T11:34:25;19.20;;;15.00;;
14613;SDS011;7393;51.446;6.800;2023-04-29T11:36:52;19.23;;;14.77;;
14613;SDS011;7393;51.446;6.800;2023-04-29T11:39:19;18.13;;;14.87;;
14613;SDS011;7393;51.446;6.800;2023-04-29T11:41:46;16.73;;;15.00;;
14613;SDS011;7393;51.446;6.800;2023-04-29T11:44:14;18.40;;;14.70;;
14613;SDS011;7393;51.446;6.800;2023-04-29T11:46:47;16.27;;;14.30;;
14613;SDS011;7393;51.446;6.800;2023-04-29T11:49:15;17.50;;;13.53;;
14613;SDS011;7393;51.446;6.800;2023-04-29T11:51:42;16.37;;;13.73;;
14613;SDS011;7393;51.446;6.800;2023-04-29T11:54:09;16.80;;;12.97;;
14613;SDS011;7393;51.446;6.800;2023-04-29T11:56:36;19.67;;;13.07;;
14613;SDS011;7393;51.446;6.800;2023-04-29T11:59:03;18.37;;;13.83;;
14613;SDS011;7393;51.446;6.800;2023-04-29T12:01:32;20.23;;;14.67;;
14613;SDS011;7393;51.446;6.800;2023-04-29T12:04:00;17.53;;;13.23;;
14613;SDS011;7393;51.446;6.800;2023-04-29T12:06:27;16.70;;;13.20;;
14613;SDS011;7393;51.446;6.800;2023-04-29T12:08:57;14.50;;;13.00;;
14613;SDS011;7393;51.446;6.800;2023-04-29T12:11:24;14.00;;;11.97;;
14613;SDS011;7393;51.446;6.800;2023-04-29T12:13:52;16.87;;;12.37;;
14613;SDS011;7393;51.446;6.800;2023-04-29T12:16:19;13.67;;;12.23;;
14613;SDS011;7393;51.446;6.800;2023-04-29T12:18:48;13.80;;;11.13;;
14613;SDS011;7393;51.446;6.800;2023-04-29T12:21:16;13.20;;;11.10;;
14613;SDS011;7393;51.446;6.800;2023-04-29T12:23:44;12.67;;;10.17;;
14613;SDS011;7393;51.446;6.800;2023-04-29T12:26:11;15.07;;;9.90;;
14613;SDS011;7393;51.446;6.800;2023-04-29T12:28:39;10.43;;;9.00;;
14613;SDS011;7393;51.446;6.800;2023-04-29T12:31:07;12.40;;;9.53;;
14613;SDS011;7393;51.446;6.800;2023-04-29T12:33:35;9.90;;;8.73;;
14613;SDS011;7393;51.446;6.800;2023-04-29T12:36:02;10.40;;;8.57;;
14613;SDS011;7393;51.446;6.800;2023-04-29T12:38:30;13.73;;;8.90;;
14613;SDS011;7393;51.446;6.800;2023-04-29T12:40:58;10.90;;;9.07;;
14613;SDS011;7393;51.446;6.800;2023-04-29T12:43:25;11.47;;;9.30;;
14613;SDS011;7393;51.446;6.800;2023-04-29T12:45:53;14.07;;;9.80;;
14613;SDS011;7393;51.446;6.800;2023-04-29T12:48:28;10.07;;;8.57;;
14613;SDS011;7393;51.446;6.800;2023-04-29T12:50:56;13.23;;;9.07;;
14613;SDS011;7393;51.446;6.800;2023-04-29T12:53:24;15.13;;;10.07;;
14613;SDS011;7393;51.446;6.800;2023-04-29T12:55:52;12.57;;;9.33;;
14613;SDS011;7393;51.446;6.800;2023-04-29T12:58:19;10.70;;;9.03;;
14613;SDS011;7393;51.446;6.800;2023-04-29T13:00:46;13.37;;;8.83;;
14613;SDS011;7393;51.446;6.800;2023-04-29T13:03:13;12.53;;;9.20;;
14613;SDS011;7393;51.446;6.800;2023-04-29T13:05:40;10.40;;;8.30;;
14613;SDS011;7393;51.446;6.800;2023-04-29T13:08:06;12.33;;;8.03;;
14613;SDS011;7393;51.446;6.800;2023-04-29T13:10:33;9.60;;;8.10;;
14613;SDS011;7393;51.446;6.800;2023-04-29T13:13:01;10.03;;;8.10;;
14613;SDS011;7393;51.446;6.800;2023-04-29T13:15:28;9.27;;;8.27;;
14613;SDS011;7393;51.446;6.800;2023-04-29T13:17:55;11.63;;;8.70;;
14613;SDS011;7393;51.446;6.800;2023-04-29T13:20:22;9.10;;;8.07;;
14613;SDS011;7393;51.446;6.800;2023-04-29T13:22:49;9.93;;;8.10;;
14613;SDS011;7393;51.446;6.800;2023-04-29T13:25:16;11.60;;;8.67;;
14613;SDS011;7393;51.446;6.800;2023-04-29T13:27:43;10.47;;;8.70;;
14613;SDS011;7393;51.446;6.800;2023-04-29T13:30:11;9.77;;;8.40;;
14613;SDS011;7393;51.446;6.800;2023-04-29T13:32:38;11.93;;;9.00;;
14613;SDS011;7393;51.446;6.800;2023-04-29T13:35:06;9.23;;;8.30;;
14613;SDS011;7393;51.446;6.800;2023-04-29T13:37:33;11.63;;;8.10;;
14613;SDS011;7393;51.446;6.800;2023-04-29T13:40:00;10.00;;;8.17;;
14613;SDS011;7393;51.446;6.800;2023-04-29T13:42:27;8.77;;;7.47;;
14613;SDS011;7393;51.446;6.800;2023-04-29T13:44:53;10.63;;;7.17;;
14613;SDS011;7393;51.446;6.800;2023-04-29T13:47:22;9.10;;;7.17;;
14613;SDS011;7393;51.446;6.800;2023-04-29T13:49:49;9.47;;;7.23;;
14613;SDS011;7393;51.446;6.800;2023-04-29T13:52:16;11.13;;;8.13;;
14613;SDS011;7393;51.446;6.800;2023-04-29T13:54:42;8.47;;;6.80;;
14613;SDS011;7393;51.446;6.800;2023-04-29T13:57:09;12.07;;;7.30;;
14613;SDS011;7393;51.446;6.800;2023-04-29T13:59:36;9.30;;;7.03;;
14613;SDS011;7393;51.446;6.800;2023-04-29T14:02:03;10.37;;;7.27;;
14613;SDS011;7393;51.446;6.800;2023-04-29T14:04:31;9.50;;;6.73;;
14613;SDS011;7393;51.446;6.800;2023-04-29T14:06:58;7.87;;;7.00;;
14613;SDS011;7393;51.446;6.800;2023-04-29T14:09:24;9.87;;;7.47;;
14613;SDS011;7393;51.446;6.800;2023-04-29T14:11:51;9.50;;;7.07;;
14613;SDS011;7393;51.446;6.800;2023-04-29T14:14:18;9.97;;;7.53;;
14613;SDS011;7393;51.446;6.800;2023-04-29T14:16:45;8.13;;;7.07;;
14613;SDS011;7393;51.446;6.800;2023-04-29T14:19:12;12.60;;;7.17;;
14613;SDS011;7393;51.446;6.800;2023-04-29T14:21:40;7.97;;;6.20;;
14613;SDS011;7393;51.446;6.800;2023-04-29T14:24:07;9.07;;;6.57;;
14613;SDS011;7393;51.446;6.800;2023-04-29T14:26:33;9.27;;;6.30;;
14613;SDS011;7393;51.446;6.800;2023-04-29T14:29:01;7.17;;;5.73;;
14613;SDS011;7393;51.446;6.800;2023-04-29T14:31:28;7.37;;;5.50;;
14613;SDS011;7393;51.446;6.800;2023-04-29T14:33:56;7.03;;;5.43;;
14613;SDS011;7393;51.446;6.800;2023-04-29T14:36:23;7.50;;;5.60;;
14613;SDS011;7393;51.446;6.800;2023-04-29T14:38:53;8.00;;;5.53;;
14613;SDS011;7393;51.446;6.800;2023-04-29T14:41:20;10.70;;;5.77;;
14613;SDS011;7393;51.446;6.800;2023-04-29T14:43:47;7.43;;;5.37;;